createdAt,value
2018-10-19T00:00:04.552Z,52.90
2018-10-19T00:02:32.862Z,52.80
2018-10-19T00:05:01.147Z,49.90
2018-10-19T00:07:30.106Z,50.80
2018-10-19T00:09:58.324Z,50.60
2018-10-19T00:12:26.596Z,49.20
2018-10-19T00:14:54.811Z,50.20
2018-10-19T00:17:23.029Z,50.40
2018-10-19T00:19:51.306Z,50.90
2018-10-19T00:22:19.525Z,49.50
2018-10-19T00:24:47.772Z,49.20
2018-10-19T00:27:16.024Z,49.30
2018-10-19T00:29:45.021Z,50.20
2018-10-19T00:32:13.294Z,50.20
2018-10-19T00:34:41.541Z,54.80
2018-10-19T00:37:09.784Z,51.50
2018-10-19T00:39:38.062Z,49.20
2018-10-19T00:42:06.277Z,50.00
2018-10-19T00:44:35.306Z,50.00
2018-10-19T00:47:03.553Z,50.00
2018-10-19T00:49:31.745Z,49.20
2018-10-19T00:51:59.966Z,49.30
2018-10-19T00:54:28.239Z,49.10
2018-10-19T00:56:56.460Z,49.20
2018-10-19T00:59:25.437Z,49.20
2018-10-19T01:01:54.459Z,51.80
2018-10-19T01:04:22.690Z,52.10
2018-10-19T01:06:50.896Z,52.90
2018-10-19T01:09:19.938Z,57.60
2018-10-19T01:11:48.189Z,57.70
2018-10-19T01:14:17.159Z,55.50
2018-10-19T01:16:46.125Z,53.70
2018-10-19T01:19:15.923Z,53.80
2018-10-19T01:21:44.165Z,53.60
2018-10-19T01:24:12.365Z,58.70
2018-10-19T01:26:40.628Z,59.00
2018-10-19T01:29:08.922Z,52.20
2018-10-19T01:31:37.105Z,58.20
2018-10-19T01:34:05.291Z,54.90
2018-10-19T01:36:33.510Z,61.60
2018-10-19T01:39:01.778Z,53.50
2018-10-19T01:41:29.992Z,51.60
2018-10-19T01:43:58.197Z,53.60
2018-10-19T01:46:26.463Z,71.30
2018-10-19T01:48:54.662Z,58.20
2018-10-19T01:51:22.874Z,54.00
2018-10-19T01:53:51.089Z,55.40
2018-10-19T01:56:19.316Z,56.80
2018-10-19T01:58:48.325Z,57.10
2018-10-19T02:01:16.562Z,57.10
2018-10-19T02:03:44.770Z,52.60
2018-10-19T02:06:13.018Z,51.90
2018-10-19T02:08:41.270Z,53.80
2018-10-19T02:11:09.578Z,52.40
2018-10-19T02:13:37.721Z,51.50
2018-10-19T02:16:05.926Z,51.70
2018-10-19T02:18:34.955Z,51.60
2018-10-19T02:21:03.236Z,51.70
2018-10-19T02:23:31.444Z,51.90
2018-10-19T02:25:59.680Z,51.20
2018-10-19T02:28:27.936Z,51.00
2018-10-19T02:30:56.944Z,54.90
2018-10-19T02:33:25.996Z,53.70
2018-10-19T02:35:54.197Z,53.60
2018-10-19T02:38:23.212Z,51.50
2018-10-19T02:40:51.466Z,51.50
2018-10-19T02:43:19.714Z,51.20
2018-10-19T02:45:47.934Z,52.20
2018-10-19T02:48:16.149Z,55.70
2018-10-19T02:50:44.416Z,53.30
2018-10-19T02:53:12.664Z,51.50
2018-10-19T02:55:40.886Z,55.70
2018-10-19T02:58:09.184Z,55.10
2018-10-19T03:00:37.428Z,54.80
2018-10-19T03:03:05.718Z,62.10
2018-10-19T03:05:34.663Z,66.20
2018-10-19T03:08:02.860Z,66.50
2018-10-19T03:10:31.099Z,55.40
2018-10-19T03:12:59.316Z,53.50
2018-10-19T03:15:27.568Z,53.70
2018-10-19T03:17:56.594Z,52.70
2018-10-19T03:20:24.828Z,52.80
2018-10-19T03:22:53.911Z,52.10
2018-10-19T03:25:22.102Z,51.50
2018-10-19T03:27:51.128Z,52.70
2018-10-19T03:30:19.365Z,52.60
2018-10-19T03:32:47.618Z,52.30
2018-10-19T03:35:15.924Z,53.50
2018-10-19T03:37:44.045Z,51.90
2018-10-19T03:40:12.319Z,52.10
2018-10-19T03:42:40.523Z,52.60
2018-10-19T03:45:08.752Z,53.40
2018-10-19T03:47:36.964Z,53.00
2018-10-19T03:50:05.175Z,54.40
2018-10-19T03:52:34.192Z,57.70
2018-10-19T03:55:03.211Z,52.10
2018-10-19T03:57:31.447Z,52.10
2018-10-19T04:00:00.464Z,54.60
2018-10-19T04:02:29.423Z,52.10
2018-10-19T04:04:58.434Z,51.90
2018-10-19T04:07:27.410Z,51.60
2018-10-19T04:09:55.655Z,51.60
2018-10-19T04:12:23.872Z,51.90
2018-10-19T04:14:52.851Z,51.80
2018-10-19T04:17:21.113Z,51.80
2018-10-19T04:19:49.359Z,51.40
2018-10-19T04:22:17.587Z,51.60
2018-10-19T04:24:45.793Z,51.70
2018-10-19T04:27:14.107Z,51.90
2018-10-19T04:29:43.031Z,51.70
2018-10-19T04:32:11.298Z,51.70
2018-10-19T04:34:39.495Z,52.90
2018-10-19T04:37:08.482Z,53.30
2018-10-19T04:39:36.681Z,53.30
2018-10-19T04:42:05.016Z,53.10
2018-10-19T04:44:33.244Z,52.80
2018-10-19T04:47:01.530Z,54.90
2018-10-19T04:49:30.523Z,52.40
2018-10-19T04:51:58.722Z,52.40
2018-10-19T04:54:26.983Z,52.50
2018-10-19T04:56:55.190Z,55.00
2018-10-19T04:59:23.439Z,54.90
2018-10-19T05:01:51.661Z,55.00
2018-10-19T05:04:19.881Z,54.10
2018-10-19T05:06:48.136Z,55.80
2018-10-19T05:09:16.343Z,52.70
2018-10-19T05:11:44.544Z,52.90
2018-10-19T05:14:12.924Z,52.50
2018-10-19T05:16:41.076Z,52.60
2018-10-19T05:19:09.273Z,52.20
2018-10-19T05:21:37.541Z,53.90
2018-10-19T05:24:05.779Z,57.70
2018-10-19T05:26:33.981Z,52.60
2018-10-19T05:29:02.247Z,52.20
2018-10-19T05:31:30.462Z,53.40
2018-10-19T05:33:58.707Z,52.30
2018-10-19T05:36:26.949Z,52.00
2018-10-19T05:38:55.191Z,52.50
2018-10-19T05:41:23.401Z,52.10
2018-10-19T05:43:51.613Z,51.90
2018-10-19T05:46:19.873Z,52.20
2018-10-19T05:48:48.086Z,51.90
2018-10-19T05:51:16.306Z,52.40
2018-10-19T05:53:44.564Z,57.60
2018-10-19T05:56:12.833Z,56.40
2018-10-19T05:58:41.006Z,54.70
2018-10-19T06:01:09.292Z,59.00
2018-10-19T06:03:37.482Z,53.50
2018-10-19T06:06:06.479Z,54.60
2018-10-19T06:08:35.454Z,53.30
2018-10-19T06:11:03.665Z,53.30
2018-10-19T06:13:31.956Z,53.40
2018-10-19T06:16:00.207Z,54.80
2018-10-19T06:18:29.180Z,73.80
2018-10-19T06:20:57.535Z,73.80
2018-10-19T06:23:25.765Z,72.40
2018-10-19T06:25:54.727Z,55.90
2018-10-19T06:28:22.954Z,56.20
2018-10-19T06:30:51.222Z,56.40
2018-10-19T06:33:19.449Z,56.00
2018-10-19T06:35:47.675Z,64.70
2018-10-19T06:38:16.032Z,69.10
2018-10-19T06:40:44.966Z,55.20
2018-10-19T06:43:13.135Z,55.30
2018-10-19T06:45:41.368Z,54.90
2018-10-19T06:48:10.387Z,58.90
2018-10-19T06:50:38.602Z,59.00
2018-10-19T06:53:06.913Z,56.10
2018-10-19T06:55:35.067Z,54.70
2018-10-19T06:58:03.281Z,59.40
2018-10-19T07:00:31.557Z,56.00
2018-10-19T07:03:01.405Z,57.10
2018-10-19T07:05:29.698Z,57.10
2018-10-19T07:07:58.717Z,54.90
2018-10-19T07:10:27.640Z,55.80
2018-10-19T07:12:55.851Z,55.90
2018-10-19T07:15:24.071Z,56.20
2018-10-19T07:17:53.092Z,58.50
2018-10-19T07:20:21.280Z,58.40
2018-10-19T07:22:49.554Z,59.70
2018-10-19T07:25:17.757Z,55.70
2018-10-19T07:27:46.038Z,54.70
2018-10-19T07:30:14.262Z,55.40
2018-10-19T07:32:43.238Z,57.90
2018-10-19T07:35:12.259Z,55.80
2018-10-19T07:37:40.457Z,56.70
2018-10-19T07:40:08.669Z,56.10
2018-10-19T07:42:36.938Z,55.50
2018-10-19T07:45:05.097Z,56.80
2018-10-19T07:47:33.465Z,57.40
2018-10-19T07:50:01.617Z,55.80
2018-10-19T07:52:30.614Z,57.40
2018-10-19T07:54:58.877Z,57.40
2018-10-19T07:57:27.123Z,55.70
2018-10-19T07:59:55.386Z,55.40
2018-10-19T08:02:23.632Z,55.20
2018-10-19T08:04:51.912Z,55.30
2018-10-19T08:07:20.110Z,56.40
2018-10-19T08:09:48.378Z,55.60
2018-10-19T08:12:16.590Z,55.70
2018-10-19T08:14:45.614Z,55.20
2018-10-19T08:17:13.948Z,55.20
2018-10-19T08:19:42.900Z,55.50
2018-10-19T08:22:11.146Z,55.50
2018-10-19T08:24:40.184Z,55.30
2018-10-19T08:27:08.461Z,55.20
2018-10-19T08:29:36.670Z,55.50
2018-10-19T08:32:05.674Z,57.30
2018-10-19T08:34:33.930Z,57.30
2018-10-19T08:37:02.134Z,67.60
2018-10-19T08:39:31.162Z,57.10
2018-10-19T08:41:59.392Z,57.10
2018-10-19T08:44:27.618Z,62.70
2018-10-19T08:46:55.842Z,58.30
2018-10-19T08:49:24.108Z,57.70
2018-10-19T08:51:52.309Z,57.00
2018-10-19T08:54:21.286Z,57.90
2018-10-19T08:56:49.520Z,57.80
2018-10-19T08:59:17.786Z,60.90
2018-10-19T09:01:46.018Z,64.80
2018-10-19T09:04:14.241Z,65.20
2018-10-19T09:06:43.271Z,58.60
2018-10-19T09:09:11.578Z,58.60
2018-10-19T09:11:39.840Z,64.10
2018-10-19T09:14:08.022Z,58.70
2018-10-19T09:16:36.304Z,58.30
2018-10-19T09:19:04.546Z,63.90
2018-10-19T09:21:33.541Z,58.90
2018-10-19T09:24:01.796Z,58.90
2018-10-19T09:26:30.008Z,68.60
2018-10-19T09:28:58.263Z,62.30
2018-10-19T09:31:26.521Z,61.10
2018-10-19T09:33:54.733Z,68.50
2018-10-19T09:36:23.217Z,63.50
2018-10-19T09:38:51.281Z,66.20
2018-10-19T09:41:19.575Z,60.90
2018-10-19T09:43:47.791Z,63.70
2018-10-19T09:46:16.815Z,63.20
2018-10-19T09:48:45.037Z,63.10
2018-10-19T09:51:14.156Z,65.80
2018-10-19T09:53:43.061Z,62.80
2018-10-19T09:56:11.371Z,63.40
2018-10-19T09:58:39.624Z,62.10
2018-10-19T10:01:08.693Z,62.20
2018-10-19T10:03:36.892Z,62.60
2018-10-19T10:06:05.107Z,60.10
2018-10-19T10:08:33.367Z,59.80
2018-10-19T10:11:01.642Z,59.40
2018-10-19T10:13:29.899Z,60.50
2018-10-19T10:15:58.121Z,59.80
2018-10-19T10:18:27.137Z,58.60
2018-10-19T10:20:55.349Z,58.70
2018-10-19T10:23:23.605Z,58.70
2018-10-19T10:25:52.584Z,58.10
2018-10-19T10:28:21.579Z,58.20
2018-10-19T10:30:50.606Z,58.20
2018-10-19T10:33:18.821Z,58.20
2018-10-19T10:35:47.082Z,58.00
2018-10-19T10:38:15.269Z,58.00
2018-10-19T10:40:43.485Z,55.90
2018-10-19T10:43:11.720Z,57.70
2018-10-19T10:45:39.970Z,54.70
2018-10-19T10:48:08.166Z,56.20
2018-10-19T10:50:36.440Z,55.40
2018-10-19T10:53:04.648Z,55.40
2018-10-19T10:55:33.671Z,54.60
2018-10-19T10:58:02.004Z,54.70
2018-10-19T11:00:30.225Z,56.50
2018-10-19T11:02:58.420Z,52.90
2018-10-19T11:05:26.656Z,54.80
2018-10-19T11:07:55.686Z,50.80
2018-10-19T11:10:23.916Z,50.80
2018-10-19T11:12:52.203Z,52.20
2018-10-19T11:15:20.464Z,54.00
2018-10-19T11:17:48.736Z,53.30
2018-10-19T11:20:16.982Z,50.20
2018-10-19T11:22:45.192Z,54.00
2018-10-19T11:25:13.530Z,53.20
2018-10-19T11:27:41.726Z,54.40
2018-10-19T11:30:09.976Z,52.80
2018-10-19T11:32:38.209Z,54.50
2018-10-19T11:35:06.460Z,54.20
2018-10-19T11:37:35.620Z,52.00
2018-10-19T11:40:12.535Z,52.10
2018-10-19T11:42:40.756Z,53.20
2018-10-19T11:45:09.734Z,53.60
2018-10-19T11:47:38.779Z,48.70
2018-10-19T11:50:06.995Z,48.70
2018-10-19T11:52:35.208Z,50.10
2018-10-19T11:55:03.537Z,52.10
2018-10-19T11:57:32.501Z,53.10
2018-10-19T12:00:00.716Z,53.10
2018-10-19T12:02:28.997Z,47.50
2018-10-19T12:04:57.206Z,49.80
2018-10-19T12:07:25.481Z,53.60
2018-10-19T12:09:54.496Z,49.80
2018-10-19T12:12:22.728Z,49.20
2018-10-19T12:14:51.711Z,53.50
2018-10-19T12:17:19.948Z,53.50
2018-10-19T12:19:48.221Z,53.60
2018-10-19T12:22:16.449Z,46.70
2018-10-19T12:24:44.720Z,51.60
2018-10-19T12:27:13.041Z,48.30
2018-10-19T12:29:41.255Z,49.00
2018-10-19T12:32:09.501Z,50.00
2018-10-19T12:34:37.721Z,46.90
2018-10-19T12:37:05.984Z,51.40
2018-10-19T12:39:34.179Z,46.70
2018-10-19T12:42:02.415Z,48.80
2018-10-19T12:44:30.632Z,41.10
2018-10-19T12:49:58.749Z,45.30
2018-10-19T12:52:27.743Z,49.50
2018-10-19T12:54:56.763Z,42.90
2018-10-19T12:57:25.052Z,43.10
2018-10-19T12:59:54.049Z,38.20
2018-10-19T13:02:22.273Z,38.20
2018-10-19T13:04:51.293Z,45.30
2018-10-19T13:07:19.559Z,45.30
2018-10-19T13:09:48.594Z,44.40
2018-10-19T13:12:18.527Z,42.70
2018-10-19T13:14:46.777Z,42.90
2018-10-19T13:17:15.028Z,41.00
2018-10-19T13:19:43.306Z,43.90
2018-10-19T13:22:12.325Z,42.70
2018-10-19T13:24:40.592Z,42.80
2018-10-19T13:27:08.853Z,45.60
2018-10-19T13:29:37.826Z,46.90
2018-10-19T13:32:06.081Z,46.90
2018-10-19T13:34:34.334Z,47.80
2018-10-19T13:37:02.578Z,47.00
2018-10-19T13:39:30.836Z,46.40
2018-10-19T13:41:59.929Z,39.50
2018-10-19T13:44:28.259Z,44.80
2018-10-19T13:46:57.457Z,39.70
2018-10-19T13:49:27.690Z,44.10
2018-10-19T13:51:58.932Z,44.30
2018-10-19T13:54:27.328Z,39.30
2018-10-19T13:56:55.691Z,40.30
2018-10-19T13:59:24.698Z,43.50
2018-10-19T14:01:52.972Z,43.50
2018-10-19T14:04:21.216Z,41.70
2018-10-19T14:06:49.466Z,43.10
2018-10-19T14:09:17.699Z,43.20
2018-10-19T14:11:45.920Z,43.00
2018-10-19T14:14:14.199Z,43.20
2018-10-19T14:16:43.224Z,43.60
2018-10-19T14:19:11.602Z,43.60
2018-10-19T14:21:39.763Z,44.20
2018-10-19T14:24:08.050Z,44.30
2018-10-19T14:26:36.318Z,44.10
2018-10-19T14:29:05.403Z,44.30
2018-10-19T14:31:33.713Z,44.30
2018-10-19T14:34:01.984Z,44.10
2018-10-19T14:36:30.244Z,44.40
2018-10-19T14:38:59.287Z,45.10
2018-10-19T14:41:27.494Z,45.20
2018-10-19T14:43:56.523Z,45.50
2018-10-19T14:46:24.772Z,45.10
2018-10-19T14:48:53.826Z,45.30
2018-10-19T14:51:22.758Z,45.20
2018-10-19T14:53:51.795Z,45.70
2018-10-19T14:56:20.019Z,45.00
2018-10-19T14:58:48.238Z,45.50
2018-10-19T15:01:16.495Z,44.80
2018-10-19T15:03:45.485Z,45.00
2018-10-19T15:06:14.482Z,45.30
2018-10-19T15:08:43.470Z,45.10
2018-10-19T15:11:12.804Z,45.40
2018-10-19T15:13:40.791Z,45.30
2018-10-19T15:16:09.013Z,45.20
2018-10-19T15:18:37.305Z,45.20
2018-10-19T15:21:05.543Z,45.40
2018-10-19T15:23:33.723Z,46.10
2018-10-19T15:26:01.987Z,46.90
2018-10-19T15:28:30.207Z,45.80
2018-10-19T15:30:59.219Z,46.70
2018-10-19T15:33:27.484Z,46.60
2018-10-19T15:35:56.553Z,45.60
2018-10-19T15:38:24.758Z,45.60
2018-10-19T15:40:53.745Z,45.40
2018-10-19T15:43:21.987Z,45.40
2018-10-19T15:45:50.204Z,45.60
2018-10-19T15:48:19.235Z,45.40
2018-10-19T15:50:47.484Z,45.40
2018-10-19T15:53:15.700Z,45.20
2018-10-19T15:55:44.070Z,45.10
2018-10-19T15:58:12.287Z,44.90
2018-10-19T16:00:41.310Z,45.00
2018-10-19T16:03:10.313Z,45.90
2018-10-19T16:05:39.270Z,45.20
2018-10-19T16:08:07.548Z,45.10
2018-10-19T16:10:35.742Z,46.20
2018-10-19T16:13:03.982Z,45.30
2018-10-19T16:15:33.706Z,46.10
2018-10-19T16:18:01.959Z,46.20
2018-10-19T16:20:30.197Z,45.30
2018-10-19T16:22:58.456Z,45.30
2018-10-19T16:25:27.587Z,45.30
2018-10-19T16:27:55.850Z,45.00
2018-10-19T16:30:24.094Z,45.60
2018-10-19T16:32:53.128Z,45.30
2018-10-19T16:35:21.390Z,45.50
2018-10-19T16:37:49.654Z,46.10
2018-10-19T16:40:18.710Z,46.20
2018-10-19T16:42:46.903Z,46.20
2018-10-19T16:45:15.949Z,46.80
2018-10-19T16:47:44.188Z,46.80
2018-10-19T16:50:13.200Z,49.00
2018-10-19T16:52:41.520Z,49.20
2018-10-19T16:55:09.662Z,46.80
2018-10-19T16:57:37.922Z,49.00
2018-10-19T17:00:07.007Z,47.70
2018-10-19T17:02:35.342Z,47.70
2018-10-19T17:05:03.628Z,46.90
2018-10-19T17:07:32.561Z,47.60
2018-10-19T17:10:01.821Z,47.30
2018-10-19T17:12:30.086Z,47.40
2018-10-19T17:14:58.312Z,46.70
2018-10-19T17:17:27.364Z,47.00
2018-10-19T17:19:55.574Z,46.90
2018-10-19T17:22:24.578Z,47.10
2018-10-19T17:24:53.602Z,47.30
2018-10-19T17:27:21.876Z,47.40
2018-10-19T17:29:50.069Z,47.10
2018-10-19T17:32:18.361Z,47.40
2018-10-19T17:34:46.618Z,46.30
2018-10-19T17:37:14.977Z,46.50
2018-10-19T17:39:43.171Z,46.50
2018-10-19T17:42:11.433Z,46.20
2018-10-19T17:44:40.400Z,48.00
2018-10-19T17:47:09.478Z,46.80
2018-10-19T17:49:37.715Z,46.80
2018-10-19T17:52:05.984Z,48.00
2018-10-19T17:54:34.333Z,48.50
2018-10-19T17:57:02.592Z,47.60
2018-10-19T17:59:30.860Z,46.60
2018-10-19T18:01:59.082Z,47.30
2018-10-19T18:04:27.326Z,46.60
2018-10-19T18:06:55.540Z,46.20
2018-10-19T18:09:23.868Z,46.20
2018-10-19T18:11:52.034Z,46.00
2018-10-19T18:14:20.271Z,46.60
2018-10-19T18:16:48.537Z,46.30
2018-10-19T18:19:16.793Z,46.80
2018-10-19T18:21:45.902Z,46.70
2018-10-19T18:24:14.038Z,46.70
2018-10-19T18:26:42.277Z,46.70
2018-10-19T18:29:10.518Z,46.50
2018-10-19T18:31:38.790Z,46.50
2018-10-19T18:34:07.055Z,47.50
2018-10-19T18:36:35.281Z,48.60
2018-10-19T18:39:03.504Z,47.70
2018-10-19T18:41:31.780Z,48.00
2018-10-19T18:44:00.014Z,48.40
2018-10-19T18:46:28.261Z,48.00
2018-10-19T18:48:57.255Z,46.80
2018-10-19T18:51:26.241Z,47.00
2018-10-19T18:53:55.224Z,47.50
2018-10-19T18:56:24.236Z,47.30
2018-10-19T18:58:52.495Z,47.00
2018-10-19T19:01:20.720Z,47.20
2018-10-19T19:03:49.010Z,46.70
2018-10-19T19:06:17.255Z,46.80
2018-10-19T19:08:45.513Z,48.20
2018-10-19T19:11:14.604Z,47.00
2018-10-19T19:13:42.776Z,47.00
2018-10-19T19:16:11.768Z,47.00
2018-10-19T19:18:40.808Z,48.20
2018-10-19T19:21:09.070Z,47.80
2018-10-19T19:23:38.100Z,47.80
2018-10-19T19:26:06.344Z,47.90
2018-10-19T19:28:34.549Z,47.70
2018-10-19T19:31:02.807Z,48.90
2018-10-19T19:33:31.025Z,47.40
2018-10-19T19:35:59.262Z,47.70
2018-10-19T19:38:27.480Z,47.30
2018-10-19T19:40:55.752Z,47.30
2018-10-19T19:43:23.961Z,47.30
2018-10-19T19:45:52.204Z,47.10
2018-10-19T19:48:26.191Z,47.00
2018-10-19T19:50:54.418Z,48.30
2018-10-19T19:53:23.446Z,50.80
2018-10-19T19:55:51.688Z,50.80
2018-10-19T19:58:20.670Z,48.20
2018-10-19T20:00:49.702Z,49.90
2018-10-19T20:03:17.982Z,49.10
2018-10-19T20:05:46.247Z,49.40
2018-10-19T20:08:14.555Z,48.50
2018-10-19T20:10:42.874Z,48.30
2018-10-19T20:13:11.137Z,48.90
2018-10-19T20:15:39.436Z,48.80
2018-10-19T20:18:07.666Z,50.20
2018-10-19T20:20:35.995Z,49.60
2018-10-19T20:23:04.315Z,48.50
2018-10-19T20:25:32.588Z,49.00
2018-10-19T20:28:00.885Z,48.70
2018-10-19T20:30:29.144Z,49.30
2018-10-19T20:32:57.446Z,49.30
2018-10-19T20:35:25.671Z,50.40
2018-10-19T20:37:54.729Z,49.80
2018-10-19T20:40:22.952Z,49.90
2018-10-19T20:42:51.200Z,51.10
2018-10-19T20:45:20.188Z,52.30
2018-10-19T20:47:48.460Z,52.50
2018-10-19T20:50:16.786Z,51.20
2018-10-19T20:52:44.933Z,51.90
2018-10-19T20:55:13.962Z,52.40
2018-10-19T20:57:42.236Z,52.40
2018-10-19T21:00:10.536Z,52.20
2018-10-19T21:02:38.776Z,51.60
2018-10-19T21:05:07.022Z,52.90
2018-10-19T21:07:35.343Z,52.10
2018-10-19T21:10:03.537Z,55.70
2018-10-19T21:12:31.742Z,54.60
2018-10-19T21:15:00.016Z,54.00
2018-10-19T21:17:28.270Z,53.90
2018-10-19T21:19:56.490Z,56.20
2018-10-19T21:22:24.731Z,53.30
2018-10-19T21:24:52.947Z,51.00
2018-10-19T21:27:21.987Z,50.20
2018-10-19T21:29:50.266Z,50.20
2018-10-19T21:32:19.681Z,53.00
2018-10-19T21:34:47.893Z,53.10
2018-10-19T21:37:16.167Z,51.60
2018-10-19T21:39:44.383Z,53.50
2018-10-19T21:42:12.608Z,52.80
2018-10-19T21:44:40.822Z,53.70
2018-10-19T21:47:09.127Z,55.00
2018-10-19T21:49:37.346Z,53.00
2018-10-19T21:52:05.622Z,54.70
2018-10-19T21:54:33.877Z,57.50
2018-10-19T21:57:02.076Z,61.60
2018-10-19T21:59:30.360Z,55.80
2018-10-19T22:01:58.620Z,54.10
2018-10-19T22:04:26.789Z,52.40
2018-10-19T22:06:54.992Z,54.00
2018-10-19T22:09:23.988Z,53.30
2018-10-19T22:11:53.055Z,56.60
2018-10-19T22:14:21.276Z,56.50
2018-10-19T22:16:50.278Z,55.70
2018-10-19T22:19:18.526Z,55.80
2018-10-19T22:21:47.571Z,52.00
2018-10-19T22:24:15.806Z,52.00
2018-10-19T22:26:44.782Z,54.70
2018-10-19T22:29:13.121Z,55.00
2018-10-19T22:31:41.294Z,59.60
2018-10-19T22:34:09.545Z,55.30
2018-10-19T22:36:38.524Z,58.50
2018-10-19T22:39:07.544Z,58.50
2018-10-19T22:41:35.753Z,58.40
2018-10-19T22:44:04.003Z,56.60
2018-10-19T22:46:32.328Z,54.70
2018-10-19T22:49:01.369Z,53.90
2018-10-19T22:51:30.337Z,54.20
2018-10-19T22:53:59.303Z,52.50
2018-10-19T22:56:27.580Z,52.70
2018-10-19T22:58:55.816Z,52.50
2018-10-19T23:01:24.012Z,53.70
2018-10-19T23:03:52.308Z,54.40
2018-10-19T23:06:20.529Z,52.80
2018-10-19T23:08:48.775Z,51.60
2018-10-19T23:11:17.126Z,53.30
2018-10-19T23:13:45.253Z,64.90
2018-10-19T23:16:14.263Z,55.20
2018-10-19T23:18:42.466Z,55.10
2018-10-19T23:21:10.734Z,57.70
2018-10-19T23:23:38.921Z,56.80
2018-10-19T23:26:07.199Z,57.70
2018-10-19T23:28:35.437Z,63.90
2018-10-19T23:31:03.721Z,58.30
2018-10-19T23:33:32.670Z,56.40
2018-10-19T23:36:00.991Z,56.60
2018-10-19T23:38:29.238Z,56.90
2018-10-19T23:40:58.212Z,57.70
2018-10-19T23:43:26.432Z,57.60
2018-10-19T23:45:54.639Z,57.20
2018-10-19T23:48:22.869Z,55.30
2018-10-19T23:50:51.075Z,54.60
2018-10-19T23:53:19.303Z,53.80
2018-10-19T23:55:47.545Z,52.60
2018-10-19T23:58:15.799Z,52.60
